sensor_id;sensor_type;location;lat;lon;timestamp;pressure;altitude;pressure_sealevel;temperature;humidity
7668;BME280;3876;42.204;24.686;2023-11-19T00:00:45;99170.22;;;7.36;83.78
7668;BME280;3876;42.204;24.686;2023-11-19T00:03:12;99167.69;;;7.35;84.06
7668;BME280;3876;42.204;24.686;2023-11-19T00:05:40;99170.22;;;7.36;83.64
7668;BME280;3876;42.204;24.686;2023-11-19T00:08:07;99182.84;;;7.41;82.84
7668;BME280;3876;42.204;24.686;2023-11-19T00:10:34;99192.16;;;7.44;82.59
7668;BME280;3876;42.204;24.686;2023-11-19T00:13:00;99188.72;;;7.45;82.87
7668;BME280;3876;42.204;24.686;2023-11-19T00:15:28;99197.13;;;7.50;83.52
7668;BME280;3876;42.204;24.686;2023-11-19T00:17:55;99202.22;;;7.50;83.18
7668;BME280;3876;42.204;24.686;2023-11-19T00:20:22;99193.69;;;7.51;82.69
7668;BME280;3876;42.204;24.686;2023-11-19T00:22:50;99209.00;;;7.51;82.99
7668;BME280;3876;42.204;24.686;2023-11-19T00:25:17;99214.03;;;7.54;82.05
7668;BME280;3876;42.204;24.686;2023-11-19T00:27:44;99219.22;;;7.51;82.66
7668;BME280;3876;42.204;24.686;2023-11-19T00:30:11;99206.50;;;7.49;83.19
7668;BME280;3876;42.204;24.686;2023-11-19T00:32:39;99199.06;;;7.38;83.44
7668;BME280;3876;42.204;24.686;2023-11-19T00:35:06;99214.25;;;7.45;83.44
7668;BME280;3876;42.204;24.686;2023-11-19T00:37:35;99206.66;;;7.42;82.95
7668;BME280;3876;42.204;24.686;2023-11-19T00:40:04;99204.03;;;7.45;83.69
7668;BME280;3876;42.204;24.686;2023-11-19T00:42:32;99210.81;;;7.46;83.99
7668;BME280;3876;42.204;24.686;2023-11-19T00:44:58;99213.31;;;7.47;83.79
7668;BME280;3876;42.204;24.686;2023-11-19T00:47:26;99212.63;;;7.40;84.05
7668;BME280;3876;42.204;24.686;2023-11-19T00:49:53;99217.72;;;7.40;84.03
7668;BME280;3876;42.204;24.686;2023-11-19T00:52:20;99229.53;;;7.45;84.26
7668;BME280;3876;42.204;24.686;2023-11-19T00:54:47;99205.78;;;7.43;83.62
7668;BME280;3876;42.204;24.686;2023-11-19T00:57:16;99216.00;;;7.43;84.05
7668;BME280;3876;42.204;24.686;2023-11-19T00:59:42;99210.94;;;7.39;85.04
7668;BME280;3876;42.204;24.686;2023-11-19T01:02:10;99207.56;;;7.37;84.97
7668;BME280;3876;42.204;24.686;2023-11-19T01:04:37;99219.59;;;7.31;85.28
7668;BME280;3876;42.204;24.686;2023-11-19T01:07:04;99229.84;;;7.29;85.25
7668;BME280;3876;42.204;24.686;2023-11-19T01:09:31;99225.59;;;7.30;85.29
7668;BME280;3876;42.204;24.686;2023-11-19T01:12:00;99223.91;;;7.29;85.17
7668;BME280;3876;42.204;24.686;2023-11-19T01:14:28;99233.25;;;7.28;84.93
7668;BME280;3876;42.204;24.686;2023-11-19T01:16:55;99231.56;;;7.27;84.86
7668;BME280;3876;42.204;24.686;2023-11-19T01:19:23;99231.44;;;7.33;84.66
7668;BME280;3876;42.204;24.686;2023-11-19T01:21:50;99243.41;;;7.31;85.21
7668;BME280;3876;42.204;24.686;2023-11-19T01:24:17;99249.28;;;7.33;85.40
7668;BME280;3876;42.204;24.686;2023-11-19T01:26:44;99226.59;;;7.21;85.34
7668;BME280;3876;42.204;24.686;2023-11-19T01:29:11;99244.31;;;7.29;85.42
7668;BME280;3876;42.204;24.686;2023-11-19T01:31:40;99257.91;;;7.28;85.55
7668;BME280;3876;42.204;24.686;2023-11-19T01:34:07;99246.91;;;7.26;85.10
7668;BME280;3876;42.204;24.686;2023-11-19T01:36:34;99221.63;;;7.15;85.29
7668;BME280;3876;42.204;24.686;2023-11-19T01:39:01;99246.81;;;7.30;85.53
7668;BME280;3876;42.204;24.686;2023-11-19T01:41:29;99242.63;;;7.28;85.32
7668;BME280;3876;42.204;24.686;2023-11-19T01:43:56;99233.31;;;7.25;85.31
7668;BME280;3876;42.204;24.686;2023-11-19T01:46:23;99223.91;;;7.29;86.09
7668;BME280;3876;42.204;24.686;2023-11-19T01:48:53;99201.34;;;7.09;85.82
7668;BME280;3876;42.204;24.686;2023-11-19T01:51:21;99228.25;;;7.24;85.59
7668;BME280;3876;42.204;24.686;2023-11-19T01:53:49;99231.56;;;7.27;85.63
7668;BME280;3876;42.204;24.686;2023-11-19T01:56:16;99235.75;;;7.33;85.37
7668;BME280;3876;42.204;24.686;2023-11-19T01:58:44;99235.81;;;7.28;85.01
7668;BME280;3876;42.204;24.686;2023-11-19T02:01:13;99234.94;;;7.29;85.22
7668;BME280;3876;42.204;24.686;2023-11-19T02:03:40;99238.38;;;7.28;85.43
7668;BME280;3876;42.204;24.686;2023-11-19T02:06:08;99246.00;;;7.30;85.32
7668;BME280;3876;42.204;24.686;2023-11-19T02:08:35;99245.88;;;7.34;85.06
7668;BME280;3876;42.204;24.686;2023-11-19T02:11:03;99250.13;;;7.35;85.00
7668;BME280;3876;42.204;24.686;2023-11-19T02:13:30;99226.53;;;7.24;85.02
7668;BME280;3876;42.204;24.686;2023-11-19T02:15:56;99240.19;;;7.23;85.19
7668;BME280;3876;42.204;24.686;2023-11-19T02:18:25;99257.06;;;7.29;84.88
7668;BME280;3876;42.204;24.686;2023-11-19T02:20:53;99260.44;;;7.29;85.26
7668;BME280;3876;42.204;24.686;2023-11-19T02:23:21;99258.69;;;7.31;85.03
7668;BME280;3876;42.204;24.686;2023-11-19T02:26:02;99257.97;;;7.25;85.31
7668;BME280;3876;42.204;24.686;2023-11-19T02:28:32;99260.50;;;7.26;85.00
7668;BME280;3876;42.204;24.686;2023-11-19T02:30:59;99267.25;;;7.27;85.73
7668;BME280;3876;42.204;24.686;2023-11-19T02:33:26;99250.31;;;7.25;84.87
7668;BME280;3876;42.204;24.686;2023-11-19T02:35:52;99259.66;;;7.26;86.01
7668;BME280;3876;42.204;24.686;2023-11-19T02:38:19;99259.75;;;7.21;85.56
7668;BME280;3876;42.204;24.686;2023-11-19T02:40:47;99257.13;;;7.24;85.34
7668;BME280;3876;42.204;24.686;2023-11-19T02:43:14;99255.44;;;7.25;84.61
7668;BME280;3876;42.204;24.686;2023-11-19T02:45:42;99269.81;;;7.29;84.73
7668;BME280;3876;42.204;24.686;2023-11-19T02:48:11;99267.25;;;7.27;84.86
7668;BME280;3876;42.204;24.686;2023-11-19T02:50:37;99270.66;;;7.28;84.67
7668;BME280;3876;42.204;24.686;2023-11-19T02:53:04;99248.91;;;7.10;84.22
7668;BME280;3876;42.204;24.686;2023-11-19T02:55:32;99287.59;;;7.30;83.29
7668;BME280;3876;42.204;24.686;2023-11-19T02:58:03;99285.06;;;7.30;83.69
7668;BME280;3876;42.204;24.686;2023-11-19T03:00:35;99272.38;;;7.27;83.59
7668;BME280;3876;42.204;24.686;2023-11-19T03:03:08;99231.09;;;7.09;83.71
7668;BME280;3876;42.204;24.686;2023-11-19T03:05:45;99267.13;;;7.36;83.86
7668;BME280;3876;42.204;24.686;2023-11-19T03:08:14;99254.63;;;7.21;83.51
7668;BME280;3876;42.204;24.686;2023-11-19T03:10:40;99258.75;;;7.28;83.57
7668;BME280;3876;42.204;24.686;2023-11-19T03:13:11;99251.97;;;7.27;82.95
7668;BME280;3876;42.204;24.686;2023-11-19T03:15:39;99233.25;;;7.28;83.06
7668;BME280;3876;42.204;24.686;2023-11-19T03:18:06;99248.69;;;7.22;83.65
7668;BME280;3876;42.204;24.686;2023-11-19T03:20:34;99263.00;;;7.29;83.65
7668;BME280;3876;42.204;24.686;2023-11-19T03:23:00;99265.66;;;7.23;84.04
7668;BME280;3876;42.204;24.686;2023-11-19T03:25:28;99262.16;;;7.27;83.66
7668;BME280;3876;42.204;24.686;2023-11-19T03:27:59;99257.06;;;7.27;83.52
7668;BME280;3876;42.204;24.686;2023-11-19T03:30:26;99255.38;;;7.28;84.08
7668;BME280;3876;42.204;24.686;2023-11-19T03:32:53;99268.97;;;7.28;84.13
7668;BME280;3876;42.204;24.686;2023-11-19T03:35:20;99280.97;;;7.22;85.59
7668;BME280;3876;42.204;24.686;2023-11-19T03:37:48;99268.47;;;7.10;85.39
7668;BME280;3876;42.204;24.686;2023-11-19T03:40:15;99273.47;;;7.14;84.95
7668;BME280;3876;42.204;24.686;2023-11-19T03:42:42;99276.00;;;7.14;85.95
7668;BME280;3876;42.204;24.686;2023-11-19T03:45:09;99272.78;;;7.06;85.74
7668;BME280;3876;42.204;24.686;2023-11-19T03:47:36;99286.50;;;6.99;85.85
7668;BME280;3876;42.204;24.686;2023-11-19T03:50:05;99280.66;;;6.94;85.85
7668;BME280;3876;42.204;24.686;2023-11-19T03:52:32;99267.06;;;6.92;85.79
7668;BME280;3876;42.204;24.686;2023-11-19T03:55:00;99285.81;;;6.90;85.70
7668;BME280;3876;42.204;24.686;2023-11-19T03:57:28;99283.25;;;6.91;85.63
7668;BME280;3876;42.204;24.686;2023-11-19T03:59:55;99280.84;;;6.82;85.64
7668;BME280;3876;42.204;24.686;2023-11-19T04:02:23;99280.81;;;6.83;85.68
7668;BME280;3876;42.204;24.686;2023-11-19T04:04:53;99284.22;;;6.84;85.11
7668;BME280;3876;42.204;24.686;2023-11-19T04:07:20;99293.50;;;6.88;85.32
7668;BME280;3876;42.204;24.686;2023-11-19T04:09:46;99290.91;;;6.91;85.27
7668;BME280;3876;42.204;24.686;2023-11-19T04:12:14;99298.59;;;6.88;85.06
7668;BME280;3876;42.204;24.686;2023-11-19T04:14:41;99293.50;;;6.88;84.81
7668;BME280;3876;42.204;24.686;2023-11-19T04:17:08;99293.44;;;6.91;84.38
7668;BME280;3876;42.204;24.686;2023-11-19T04:19:35;99298.53;;;6.91;84.46
7668;BME280;3876;42.204;24.686;2023-11-19T04:22:01;99283.31;;;6.85;84.61
7668;BME280;3876;42.204;24.686;2023-11-19T04:24:28;99301.97;;;6.88;84.55
7668;BME280;3876;42.204;24.686;2023-11-19T04:26:55;99302.00;;;6.87;84.65
7668;BME280;3876;42.204;24.686;2023-11-19T04:29:23;99300.47;;;6.77;86.05
7668;BME280;3876;42.204;24.686;2023-11-19T04:31:50;99301.53;;;6.64;87.36
7668;BME280;3876;42.204;24.686;2023-11-19T04:34:16;99312.66;;;6.57;88.23
7668;BME280;3876;42.204;24.686;2023-11-19T04:36:43;99321.31;;;6.47;88.70
7668;BME280;3876;42.204;24.686;2023-11-19T04:39:10;99320.56;;;6.42;88.56
7668;BME280;3876;42.204;24.686;2023-11-19T04:41:45;99324.91;;;6.33;89.59
7668;BME280;3876;42.204;24.686;2023-11-19T04:44:12;99335.16;;;6.27;89.37
7668;BME280;3876;42.204;24.686;2023-11-19T04:46:40;99338.66;;;6.23;88.84
7668;BME280;3876;42.204;24.686;2023-11-19T04:49:08;99329.28;;;6.24;89.01
7668;BME280;3876;42.204;24.686;2023-11-19T04:51:38;99330.16;;;6.21;88.40
7668;BME280;3876;42.204;24.686;2023-11-19T04:54:05;99307.44;;;6.08;88.82
7668;BME280;3876;42.204;24.686;2023-11-19T04:56:32;99322.63;;;6.17;88.48
7668;BME280;3876;42.204;24.686;2023-11-19T04:58:58;99328.47;;;6.20;87.75
7668;BME280;3876;42.204;24.686;2023-11-19T05:01:25;99334.50;;;6.15;88.25
7668;BME280;3876;42.204;24.686;2023-11-19T05:03:53;99330.25;;;6.17;88.35
7668;BME280;3876;42.204;24.686;2023-11-19T05:06:20;99338.75;;;6.14;88.45
7668;BME280;3876;42.204;24.686;2023-11-19T05:08:47;99323.72;;;5.96;88.34
7668;BME280;3876;42.204;24.686;2023-11-19T05:11:13;99348.25;;;6.03;88.55
7668;BME280;3876;42.204;24.686;2023-11-19T05:13:43;99354.22;;;5.99;89.12
7668;BME280;3876;42.204;24.686;2023-11-19T05:16:11;99351.66;;;5.99;89.58
7668;BME280;3876;42.204;24.686;2023-11-19T05:18:39;99344.94;;;5.97;89.39
7668;BME280;3876;42.204;24.686;2023-11-19T05:21:07;99351.72;;;5.98;89.30
7668;BME280;3876;42.204;24.686;2023-11-19T05:23:34;99352.56;;;5.97;89.30
7668;BME280;3876;42.204;24.686;2023-11-19T05:26:01;99357.63;;;5.98;88.84
7668;BME280;3876;42.204;24.686;2023-11-19T05:28:28;99364.44;;;5.96;89.16
7668;BME280;3876;42.204;24.686;2023-11-19T05:30:55;99353.41;;;5.97;89.31
7668;BME280;3876;42.204;24.686;2023-11-19T05:33:21;99348.31;;;5.96;88.84
7668;BME280;3876;42.204;24.686;2023-11-19T05:35:48;99353.41;;;5.97;88.96
7668;BME280;3876;42.204;24.686;2023-11-19T05:38:16;99358.47;;;5.99;88.67
7668;BME280;3876;42.204;24.686;2023-11-19T05:40:43;99360.13;;;6.01;88.94
7668;BME280;3876;42.204;24.686;2023-11-19T05:43:10;99372.81;;;6.04;88.84
7668;BME280;3876;42.204;24.686;2023-11-19T05:45:36;99381.34;;;6.00;89.49
7668;BME280;3876;42.204;24.686;2023-11-19T05:48:04;99372.91;;;5.95;89.01
7668;BME280;3876;42.204;24.686;2023-11-19T05:50:30;99368.72;;;5.94;89.02
7668;BME280;3876;42.204;24.686;2023-11-19T05:52:57;99369.53;;;5.96;88.74
7668;BME280;3876;42.204;24.686;2023-11-19T05:55:25;99367.78;;;5.98;88.42
7668;BME280;3876;42.204;24.686;2023-11-19T05:57:53;99372.81;;;6.04;88.78
7668;BME280;3876;42.204;24.686;2023-11-19T06:00:20;99353.25;;;6.08;88.74
7668;BME280;3876;42.204;24.686;2023-11-19T06:02:47;99354.94;;;6.10;88.46
7668;BME280;3876;42.204;24.686;2023-11-19T06:05:14;99363.34;;;6.17;88.11
7668;BME280;3876;42.204;24.686;2023-11-19T06:07:40;99357.31;;;6.22;88.03
7668;BME280;3876;42.204;24.686;2023-11-19T06:10:08;99357.28;;;6.25;87.63
7668;BME280;3876;42.204;24.686;2023-11-19T06:12:36;99358.03;;;6.32;87.87
7668;BME280;3876;42.204;24.686;2023-11-19T06:15:07;99338.66;;;6.20;87.65
7668;BME280;3876;42.204;24.686;2023-11-19T06:17:34;99362.19;;;6.38;88.28
7668;BME280;3876;42.204;24.686;2023-11-19T06:20:01;99369.78;;;6.42;87.22
7668;BME280;3876;42.204;24.686;2023-11-19T06:22:29;99390.00;;;6.51;86.69
7668;BME280;3876;42.204;24.686;2023-11-19T06:24:56;99387.44;;;6.53;85.82
7668;BME280;3876;42.204;24.686;2023-11-19T06:27:24;99399.16;;;6.63;85.57
7668;BME280;3876;42.204;24.686;2023-11-19T06:29:52;99406.66;;;6.73;85.22
7668;BME280;3876;42.204;24.686;2023-11-19T06:32:18;99393.81;;;6.81;84.25
7668;BME280;3876;42.204;24.686;2023-11-19T06:34:45;99400.53;;;6.85;85.02
7668;BME280;3876;42.204;24.686;2023-11-19T06:37:12;99403.88;;;6.88;84.88
7668;BME280;3876;42.204;24.686;2023-11-19T06:39:38;99409.72;;;6.95;84.24
7668;BME280;3876;42.204;24.686;2023-11-19T06:42:06;99418.16;;;6.99;84.03
7668;BME280;3876;42.204;24.686;2023-11-19T06:44:32;99411.25;;;7.07;83.55
7668;BME280;3876;42.204;24.686;2023-11-19T06:47:01;99406.97;;;7.10;83.11
7668;BME280;3876;42.204;24.686;2023-11-19T06:49:27;99419.50;;;7.21;82.84
7668;BME280;3876;42.204;24.686;2023-11-19T06:51:54;99405.06;;;7.21;82.48
7668;BME280;3876;42.204;24.686;2023-11-19T06:54:22;99408.44;;;7.23;82.04
7668;BME280;3876;42.204;24.686;2023-11-19T06:56:48;99399.03;;;7.27;82.29
7668;BME280;3876;42.204;24.686;2023-11-19T06:59:15;99402.28;;;7.33;81.44
7668;BME280;3876;42.204;24.686;2023-11-19T07:01:42;99400.47;;;7.40;82.06
7668;BME280;3876;42.204;24.686;2023-11-19T07:04:11;99385.97;;;7.44;81.51
7668;BME280;3876;42.204;24.686;2023-11-19T07:06:38;99401.22;;;7.47;80.88
7668;BME280;3876;42.204;24.686;2023-11-19T07:09:06;99397.81;;;7.48;80.42
7668;BME280;3876;42.204;24.686;2023-11-19T07:11:36;99395.25;;;7.49;80.15
7668;BME280;3876;42.204;24.686;2023-11-19T07:14:04;99403.63;;;7.56;80.41
7668;BME280;3876;42.204;24.686;2023-11-19T07:16:31;99406.00;;;7.65;80.31
7668;BME280;3876;42.204;24.686;2023-11-19T07:18:58;99407.53;;;7.73;79.31
7668;BME280;3876;42.204;24.686;2023-11-19T07:21:26;99417.00;;;7.68;79.68
7668;BME280;3876;42.204;24.686;2023-11-19T07:23:54;99411.84;;;7.71;79.70
7668;BME280;3876;42.204;24.686;2023-11-19T07:26:21;99403.03;;;7.86;79.76
7668;BME280;3876;42.204;24.686;2023-11-19T07:28:48;99403.81;;;7.91;79.23
7668;BME280;3876;42.204;24.686;2023-11-19T07:31:15;99423.91;;;8.06;78.62
7668;BME280;3876;42.204;24.686;2023-11-19T07:33:43;99418.63;;;8.15;77.85
7668;BME280;3876;42.204;24.686;2023-11-19T07:36:10;99418.50;;;8.21;78.28
7668;BME280;3876;42.204;24.686;2023-11-19T07:38:38;99431.16;;;8.29;77.57
7668;BME280;3876;42.204;24.686;2023-11-19T07:41:05;99438.53;;;8.42;76.82
7668;BME280;3876;42.204;24.686;2023-11-19T07:43:34;99448.69;;;8.46;75.98
7668;BME280;3876;42.204;24.686;2023-11-19T07:46:01;99458.91;;;8.46;75.36
7668;BME280;3876;42.204;24.686;2023-11-19T07:48:29;99457.88;;;8.54;76.03
7668;BME280;3876;42.204;24.686;2023-11-19T07:50:55;99467.00;;;8.66;75.85
7668;BME280;3876;42.204;24.686;2023-11-19T07:53:22;99455.75;;;8.73;75.59
7668;BME280;3876;42.204;24.686;2023-11-19T07:55:50;99468.34;;;8.82;74.88
7668;BME280;3876;42.204;24.686;2023-11-19T07:58:17;99460.44;;;8.92;74.88
7668;BME280;3876;42.204;24.686;2023-11-19T08:00:44;99457.00;;;8.93;74.43
7668;BME280;3876;42.204;24.686;2023-11-19T08:03:10;99458.47;;;9.04;74.81
7668;BME280;3876;42.204;24.686;2023-11-19T08:05:37;99464.44;;;9.04;74.42
7668;BME280;3876;42.204;24.686;2023-11-19T08:08:04;99461.13;;;8.99;73.50
7668;BME280;3876;42.204;24.686;2023-11-19T08:10:30;99462.69;;;9.06;73.92
7668;BME280;3876;42.204;24.686;2023-11-19T08:13:00;99466.78;;;9.13;74.98
7668;BME280;3876;42.204;24.686;2023-11-19T08:15:26;99466.84;;;9.10;73.91
7668;BME280;3876;42.204;24.686;2023-11-19T08:17:53;99469.25;;;9.16;74.51
7668;BME280;3876;42.204;24.686;2023-11-19T08:20:20;99472.84;;;9.09;74.01
7668;BME280;3876;42.204;24.686;2023-11-19T08:22:46;99464.06;;;9.19;73.20
7668;BME280;3876;42.204;24.686;2023-11-19T08:25:14;99455.59;;;9.17;73.51
7668;BME280;3876;42.204;24.686;2023-11-19T08:27:41;99448.81;;;9.16;73.68
7668;BME280;3876;42.204;24.686;2023-11-19T08:30:10;99447.03;;;9.18;72.97
7668;BME280;3876;42.204;24.686;2023-11-19T08:32:37;99423.44;;;9.07;72.39
7668;BME280;3876;42.204;24.686;2023-11-19T08:35:04;99426.66;;;9.15;73.12
7668;BME280;3876;42.204;24.686;2023-11-19T08:37:31;99420.66;;;9.16;71.83
7668;BME280;3876;42.204;24.686;2023-11-19T08:39:58;99431.53;;;9.24;72.57
7668;BME280;3876;42.204;24.686;2023-11-19T08:42:24;99427.97;;;9.31;72.86
7668;BME280;3876;42.204;24.686;2023-11-19T08:44:51;99424.53;;;9.32;72.49
7668;BME280;3876;42.204;24.686;2023-11-19T08:47:21;99449.97;;;9.38;71.74
7668;BME280;3876;42.204;24.686;2023-11-19T08:49:50;99460.91;;;9.43;72.40
7668;BME280;3876;42.204;24.686;2023-11-19T08:52:17;99471.88;;;9.48;72.12
7668;BME280;3876;42.204;24.686;2023-11-19T08:54:44;99474.28;;;9.56;71.83
7668;BME280;3876;42.204;24.686;2023-11-19T08:57:11;99481.72;;;9.65;71.71
7668;BME280;3876;42.204;24.686;2023-11-19T08:59:37;99471.50;;;9.64;70.08
7668;BME280;3876;42.204;24.686;2023-11-19T09:02:05;99457.16;;;9.58;70.85
7668;BME280;3876;42.204;24.686;2023-11-19T09:04:33;99466.31;;;9.67;70.26
7668;BME280;3876;42.204;24.686;2023-11-19T09:07:01;99474.56;;;9.78;71.05
7668;BME280;3876;42.204;24.686;2023-11-19T09:09:29;99466.00;;;9.79;70.15
7668;BME280;3876;42.204;24.686;2023-11-19T09:11:56;99469.53;;;9.75;69.92
7668;BME280;3876;42.204;24.686;2023-11-19T09:14:23;99453.25;;;9.76;70.69
7668;BME280;3876;42.204;24.686;2023-11-19T09:16:51;99452.91;;;9.89;70.43
7668;BME280;3876;42.204;24.686;2023-11-19T09:19:18;99465.75;;;9.88;70.54
7668;BME280;3876;42.204;24.686;2023-11-19T09:21:46;99442.88;;;9.82;69.54
7668;BME280;3876;42.204;24.686;2023-11-19T09:24:13;99429.25;;;9.81;70.84
7668;BME280;3876;42.204;24.686;2023-11-19T09:26:40;99436.69;;;9.89;69.72
7668;BME280;3876;42.204;24.686;2023-11-19T09:29:07;99407.75;;;9.87;69.06
7668;BME280;3876;42.204;24.686;2023-11-19T09:31:34;99434.78;;;9.97;69.27
7668;BME280;3876;42.204;24.686;2023-11-19T09:34:01;99427.13;;;9.95;69.88
7668;BME280;3876;42.204;24.686;2023-11-19T09:36:27;99445.72;;;10.02;69.63
7668;BME280;3876;42.204;24.686;2023-11-19T09:38:55;99442.88;;;10.13;69.55
7668;BME280;3876;42.204;24.686;2023-11-19T09:41:23;99451.41;;;10.13;68.41
7668;BME280;3876;42.204;24.686;2023-11-19T09:43:50;99447.88;;;10.19;68.46
7668;BME280;3876;42.204;24.686;2023-11-19T09:46:17;99462.94;;;10.29;69.62
7668;BME280;3876;42.204;24.686;2023-11-19T09:48:46;99441.88;;;10.20;68.70
7668;BME280;3876;42.204;24.686;2023-11-19T09:51:13;99471.25;;;10.37;68.68
7668;BME280;3876;42.204;24.686;2023-11-19T09:53:40;99474.81;;;10.32;68.59
7668;BME280;3876;42.204;24.686;2023-11-19T09:56:09;99491.13;;;10.29;67.38
7668;BME280;3876;42.204;24.686;2023-11-19T09:58:37;99476.47;;;10.34;68.07
7668;BME280;3876;42.204;24.686;2023-11-19T10:01:04;99465.97;;;10.43;67.66
7668;BME280;3876;42.204;24.686;2023-11-19T10:03:33;99471.78;;;10.48;67.64
7668;BME280;3876;42.204;24.686;2023-11-19T10:06:03;99478.25;;;10.62;68.94
7668;BME280;3876;42.204;24.686;2023-11-19T10:08:32;99477.53;;;10.57;68.00
7668;BME280;3876;42.204;24.686;2023-11-19T10:10:58;99479.94;;;10.63;68.67
7668;BME280;3876;42.204;24.686;2023-11-19T10:13:28;99469.59;;;10.66;66.92
7668;BME280;3876;42.204;24.686;2023-11-19T10:15:55;99474.66;;;10.67;67.28
7668;BME280;3876;42.204;24.686;2023-11-19T10:18:24;99448.44;;;10.58;66.83
7668;BME280;3876;42.204;24.686;2023-11-19T10:20:52;99444.91;;;10.62;66.18
7668;BME280;3876;42.204;24.686;2023-11-19T10:23:19;99451.56;;;10.69;67.44
7668;BME280;3876;42.204;24.686;2023-11-19T10:25:48;99448.84;;;10.73;66.51
7668;BME280;3876;42.204;24.686;2023-11-19T10:28:19;99455.53;;;10.79;66.07
7668;BME280;3876;42.204;24.686;2023-11-19T10:30:48;99462.94;;;10.88;66.67
7668;BME280;3876;42.204;24.686;2023-11-19T10:33:15;99455.44;;;10.82;65.58
7668;BME280;3876;42.204;24.686;2023-11-19T10:35:53;99444.06;;;10.89;66.34
7668;BME280;3876;42.204;24.686;2023-11-19T10:38:22;99446.41;;;10.96;65.81
7668;BME280;3876;42.204;24.686;2023-11-19T10:40:49;99434.63;;;10.91;65.53
7668;BME280;3876;42.204;24.686;2023-11-19T10:43:17;99438.16;;;10.87;65.56
7668;BME280;3876;42.204;24.686;2023-11-19T10:45:43;99437.56;;;10.79;65.15
7668;BME280;3876;42.204;24.686;2023-11-19T10:48:11;99423.94;;;10.77;66.52
7668;BME280;3876;42.204;24.686;2023-11-19T10:50:39;99434.28;;;10.74;65.44
7668;BME280;3876;42.204;24.686;2023-11-19T10:53:08;99402.31;;;10.58;65.53
7668;BME280;3876;42.204;24.686;2023-11-19T10:55:36;99417.16;;;10.76;66.57
7668;BME280;3876;42.204;24.686;2023-11-19T10:58:04;99391.59;;;10.73;66.28
7668;BME280;3876;42.204;24.686;2023-11-19T11:00:37;99407.34;;;10.88;66.37
7668;BME280;3876;42.204;24.686;2023-11-19T11:03:10;99395.06;;;10.72;64.06
7668;BME280;3876;42.204;24.686;2023-11-19T11:05:38;99408.25;;;10.86;65.22
7668;BME280;3876;42.204;24.686;2023-11-19T11:08:07;99411.19;;;10.75;64.79
7668;BME280;3876;42.204;24.686;2023-11-19T11:10:38;99419.00;;;10.71;65.71
7668;BME280;3876;42.204;24.686;2023-11-19T11:13:06;99423.91;;;10.78;65.78
7668;BME280;3876;42.204;24.686;2023-11-19T11:15:34;99432.34;;;10.82;65.26
7668;BME280;3876;42.204;24.686;2023-11-19T11:18:02;99446.06;;;10.81;64.59
7668;BME280;3876;42.204;24.686;2023-11-19T11:20:29;99440.28;;;10.73;64.98
7668;BME280;3876;42.204;24.686;2023-11-19T11:23:25;99446.34;;;10.70;65.27
7668;BME280;3876;42.204;24.686;2023-11-19T11:26:05;99430.84;;;10.75;65.01
7668;BME280;3876;42.204;24.686;2023-11-19T11:28:42;99430.97;;;10.70;64.52
7668;BME280;3876;42.204;24.686;2023-11-19T11:31:19;99424.13;;;10.71;64.98
7668;BME280;3876;42.204;24.686;2023-11-19T11:34:08;99425.06;;;10.68;64.08
7668;BME280;3876;42.204;24.686;2023-11-19T11:36:46;99416.63;;;10.65;64.90
7668;BME280;3876;42.204;24.686;2023-11-19T11:39:18;99407.25;;;10.64;64.57
7668;BME280;3876;42.204;24.686;2023-11-19T11:45:09;99385.34;;;10.53;64.89
7668;BME280;3876;42.204;24.686;2023-11-19T11:48:08;99395.25;;;10.66;65.48
7668;BME280;3876;42.204;24.686;2023-11-19T11:50:51;99382.81;;;10.80;65.21
7668;BME280;3876;42.204;24.686;2023-11-19T11:53:18;99374.53;;;10.72;64.43
7668;BME280;3876;42.204;24.686;2023-11-19T11:55:57;99389.97;;;10.70;63.54
7668;BME280;3876;42.204;24.686;2023-11-19T11:58:30;99379.88;;;10.66;62.73
7668;BME280;3876;42.204;24.686;2023-11-19T12:00:58;99356.28;;;10.54;64.20
7668;BME280;3876;42.204;24.686;2023-11-19T12:03:28;99364.47;;;10.66;63.54
7668;BME280;3876;42.204;24.686;2023-11-19T12:05:55;99369.59;;;10.66;64.04
7668;BME280;3876;42.204;24.686;2023-11-19T12:08:25;99378.06;;;10.68;63.33
7668;BME280;3876;42.204;24.686;2023-11-19T12:10:53;99374.63;;;10.69;63.86
7668;BME280;3876;42.204;24.686;2023-11-19T12:13:29;99376.16;;;10.74;64.16
7668;BME280;3876;42.204;24.686;2023-11-19T12:16:10;99383.66;;;10.80;64.83
7668;BME280;3876;42.204;24.686;2023-11-19T12:18:39;99380.03;;;10.87;63.45
7668;BME280;3876;42.204;24.686;2023-11-19T12:21:06;99370.91;;;10.79;63.04
7668;BME280;3876;42.204;24.686;2023-11-19T12:23:35;99382.72;;;10.83;64.07
7668;BME280;3876;42.204;24.686;2023-11-19T12:26:02;99378.34;;;10.86;64.60
7668;BME280;3876;42.204;24.686;2023-11-19T12:28:30;99372.19;;;10.92;64.31
7668;BME280;3876;42.204;24.686;2023-11-19T12:31:07;99369.03;;;10.84;63.71
7668;BME280;3876;42.204;24.686;2023-11-19T12:33:35;99375.75;;;10.88;63.81
7668;BME280;3876;42.204;24.686;2023-11-19T12:36:03;99370.31;;;10.97;64.38
7668;BME280;3876;42.204;24.686;2023-11-19T12:38:31;99375.63;;;10.91;62.61
7668;BME280;3876;42.204;24.686;2023-11-19T12:41:04;99375.75;;;10.88;62.67
7668;BME280;3876;42.204;24.686;2023-11-19T12:43:33;99375.03;;;10.83;63.31
7668;BME280;3876;42.204;24.686;2023-11-19T12:46:01;99374.16;;;10.84;63.49
7668;BME280;3876;42.204;24.686;2023-11-19T12:48:28;99364.56;;;10.89;63.48
7668;BME280;3876;42.204;24.686;2023-11-19T12:50:56;99358.56;;;10.90;62.56
7668;BME280;3876;42.204;24.686;2023-11-19T12:53:25;99333.63;;;10.69;62.20
7668;BME280;3876;42.204;24.686;2023-11-19T12:55:55;99350.50;;;10.76;62.54
7668;BME280;3876;42.204;24.686;2023-11-19T12:58:29;99359.41;;;10.90;62.22
7668;BME280;3876;42.204;24.686;2023-11-19T13:01:01;99365.59;;;10.85;62.08
7668;BME280;3876;42.204;24.686;2023-11-19T13:03:29;99364.00;;;10.81;62.39
7668;BME280;3876;42.204;24.686;2023-11-19T13:06:02;99364.00;;;10.81;62.55
7668;BME280;3876;42.204;24.686;2023-11-19T13:08:35;99359.84;;;10.77;62.10
7668;BME280;3876;42.204;24.686;2023-11-19T13:11:04;99354.78;;;10.75;62.60
7668;BME280;3876;42.204;24.686;2023-11-19T13:13:31;99343.47;;;10.81;63.66
7668;BME280;3876;42.204;24.686;2023-11-19T13:16:03;99322.03;;;10.83;63.26
7668;BME280;3876;42.204;24.686;2023-11-19T13:18:31;99320.00;;;10.67;62.88
7668;BME280;3876;42.204;24.686;2023-11-19T13:20:57;99333.31;;;10.78;62.31
7668;BME280;3876;42.204;24.686;2023-11-19T13:23:24;99322.97;;;10.81;62.76
7668;BME280;3876;42.204;24.686;2023-11-19T13:25:51;99318.63;;;10.83;63.42
7668;BME280;3876;42.204;24.686;2023-11-19T13:28:18;99323.06;;;10.78;62.06